Aérodrome :
LOGIN :

S'inscrire | Disclaimer

   EN    FR    IT 

 










Légende :    VFR   VFR Marginal   IFR   IFR Intensif   IFR Très Intensif
Visi : 
Plafond : 
>= 8 km
>= 3000ft
5 à 8 km
1000 à 3000 ft
1500m à 5 km
500 à 1000 ft
800 à 1500m
200 à 500 ft
< 800m
< 200 ft
Symboles :   Orages  Brouillard  Fortes neiges  Fortes précipitations  Vent > 20 kt
SIGMETs :   Divers  Orages  Givrage  Turbulence  Onde Orograph.  Cendres Volcan.







- Altitude de l'aérodrome : 616 ft
- Code IATA : PUF
- Voir les cartes d'approche


LFBP - Pau

DERNIER METAR :
  • 210430Z AUTO 28012KT 6000 -RA OVC006 12/11 Q1024 TEMPO 3500 RA BKN003 BECMG 27015G25KT

METARs EXPIRÉS :
  • 210400Z AUTO 28013KT 5000 -RA BR OVC005 12/12 Q1024 TEMPO RA BECMG 27015G25KT
  • 210330Z AUTO 27011KT 5000 DZ BR OVC005 12/12 Q1024 TEMPO RA BECMG 27015G25KT
  • 210300Z AUTO 28013KT 8000 -DZ OVC006 12/11 Q1024 TEMPO 3500 RA BKN003 BECMG 27015G25KT
  • 210230Z AUTO 27012KT 8000 -DZ OVC006 12/12 Q1024 TEMPO 3500 RA BKN003 BECMG 27015G25KT
  • 210200Z AUTO 28013KT 6000 -DZ OVC005 12/12 Q1024 TEMPO 3500 RA BECMG 27015G25KT

TAF TAF LFBP
Valide du 21 à 00h jusqu'au 22 à 00h UTC


202300Z 2100/2124 27015G25KT 6000 RADZ OVC005
TEMPO 2100/2113 3500 RA BKN003
BECMG 2112/2114 NSW BKN015
TEMPO 2113/2124 4500 RA BKN010
Pas de NOTAMs connus pour ce terrain.
1 SIGMET publié pour la FIR Bordeaux (LFBB) :
 
Onde orographique forte
LFBB SIGMET 1 VALID 210300/210700 LFPW
LFBB BORDEAUX FIR/UIR SEV MTW FCST WI N4245 E00230 - N4215 E00230 - N4245 E00000 - N4300 E00000 - N4245 E00230 SFC/FL350 STNR NC=



MET'MAP, la Météo Aéronautique d'un coup d'oeil ! - Copyright ORBIFLY Décembre 2007 - Disclaimer

ORBIFLY MET'MAP TEAM :

Programmation & Développement : Alexandra Zaïnal
Conception & Développement : Baudouin d'Aumeries
Co-Programmation & Développement : Marc-Olivier Méhu
Soutien technique & logistique : Manuel Goepfert

Contact : metmap@orbifly.com




SOURCES & CREDITS :

   NOAA